createdAt,value
2018-06-16T00:00:05.594Z,73.84
2018-06-16T00:01:05.580Z,73.84
2018-06-16T00:02:05.570Z,74.22
2018-06-16T00:03:05.563Z,73.65
2018-06-16T00:04:05.549Z,73.75
2018-06-16T00:05:05.544Z,74.04
2018-06-16T00:06:05.535Z,73.94
2018-06-16T00:07:05.524Z,74.51
2018-06-16T00:08:05.517Z,74.51
2018-06-16T00:09:05.513Z,74.22
2018-06-16T00:10:05.493Z,74.41
2018-06-16T00:11:05.487Z,73.94
2018-06-16T00:12:05.480Z,74.41
2018-06-16T00:13:05.470Z,74.41
2018-06-16T00:14:05.454Z,74.51
2018-06-16T00:15:05.448Z,74.61
2018-06-16T00:16:05.439Z,74.61
2018-06-16T00:17:05.430Z,74.51
2018-06-16T00:18:05.417Z,74.99
2018-06-16T00:19:05.405Z,75.27
2018-06-16T00:20:05.399Z,74.90
2018-06-16T00:21:05.390Z,75.09
2018-06-16T00:22:05.382Z,74.70
2018-06-16T00:23:05.368Z,74.51
2018-06-16T00:24:05.362Z,74.80
2018-06-16T00:25:05.348Z,74.61
2018-06-16T00:26:05.337Z,74.51
2018-06-16T00:27:05.333Z,74.99
2018-06-16T00:28:05.318Z,75.09
2018-06-16T00:29:05.312Z,75.47
2018-06-16T00:30:05.299Z,75.56
2018-06-16T00:31:05.290Z,75.56
2018-06-16T00:32:05.279Z,75.47
2018-06-16T00:33:05.272Z,75.18
2018-06-16T00:34:05.264Z,75.47
2018-06-16T00:35:05.248Z,75.18
2018-06-16T00:36:05.239Z,75.27
2018-06-16T00:37:05.238Z,75.62
2018-06-16T00:38:05.227Z,75.71
2018-06-16T00:39:05.209Z,75.62
2018-06-16T00:40:05.199Z,75.62
2018-06-16T00:41:05.193Z,76.33
2018-06-16T00:42:05.176Z,76.00
2018-06-16T00:43:05.176Z,76.00
2018-06-16T00:44:05.167Z,75.91
2018-06-16T00:45:05.153Z,75.81
2018-06-16T00:46:05.140Z,75.71
2018-06-16T00:47:05.135Z,76.48
2018-06-16T00:48:05.126Z,75.71
2018-06-16T00:49:05.107Z,76.29
2018-06-16T00:50:05.101Z,76.20
2018-06-16T00:51:05.090Z,76.57
2018-06-16T00:52:05.085Z,76.20
2018-06-16T00:53:05.075Z,76.10
2018-06-16T00:54:05.059Z,75.62
2018-06-16T00:55:05.049Z,76.00
2018-06-16T00:56:05.043Z,75.62
2018-06-16T00:57:05.033Z,75.24
2018-06-16T00:58:05.023Z,75.24
2018-06-16T00:59:05.012Z,75.43
2018-06-16T01:00:05.004Z,75.91
2018-06-16T01:01:04.991Z,75.62
2018-06-16T01:02:04.975Z,75.71
2018-06-16T01:03:04.973Z,76.10
2018-06-16T01:04:04.962Z,75.71
2018-06-16T01:05:04.952Z,75.91
2018-06-16T01:06:04.946Z,76.20
2018-06-16T01:07:04.934Z,75.43
2018-06-16T01:08:04.920Z,75.05
2018-06-16T01:09:04.910Z,75.05
2018-06-16T01:10:04.898Z,75.14
2018-06-16T01:11:04.891Z,75.81
2018-06-16T01:12:04.881Z,75.91
2018-06-16T01:13:04.875Z,75.43
2018-06-16T01:14:04.860Z,76.10
2018-06-16T01:15:04.851Z,76.57
2018-06-16T01:16:04.840Z,75.43
2018-06-16T01:17:04.834Z,75.43
2018-06-16T01:18:04.822Z,75.81
2018-06-16T01:19:04.812Z,75.52
2018-06-16T01:20:04.803Z,75.62
2018-06-16T01:21:04.795Z,75.81
2018-06-16T01:22:04.785Z,75.91
2018-06-16T01:23:04.771Z,74.95
2018-06-16T01:24:04.761Z,75.14
2018-06-16T01:25:04.748Z,75.52
2018-06-16T01:26:04.748Z,75.14
2018-06-16T01:27:04.728Z,75.52
2018-06-16T01:28:04.717Z,75.91
2018-06-16T01:29:04.706Z,75.91
2018-06-16T01:30:04.700Z,75.52
2018-06-16T01:31:04.703Z,75.62
2018-06-16T01:32:04.679Z,75.81
2018-06-16T01:33:04.673Z,76.10
2018-06-16T01:34:04.651Z,75.62
2018-06-16T01:35:04.649Z,75.52
2018-06-16T01:36:04.641Z,75.62
2018-06-16T01:37:04.633Z,75.62
2018-06-16T01:38:04.617Z,76.10
2018-06-16T01:39:04.609Z,75.62
2018-06-16T01:40:04.592Z,75.62
2018-06-16T01:41:04.586Z,75.71
2018-06-16T01:42:04.572Z,75.71
2018-06-16T01:43:04.565Z,74.85
2018-06-16T01:44:04.555Z,75.43
2018-06-16T01:45:04.546Z,75.14
2018-06-16T01:46:04.537Z,75.52
2018-06-16T01:47:04.518Z,75.62
2018-06-16T01:48:04.515Z,76.00
2018-06-16T01:49:04.505Z,75.91
2018-06-16T01:50:04.493Z,75.71
2018-06-16T01:51:04.483Z,76.00
2018-06-16T01:52:04.476Z,75.91
2018-06-16T01:53:04.464Z,75.24
2018-06-16T01:54:04.452Z,74.19
2018-06-16T01:55:04.439Z,74.95
2018-06-16T01:56:04.427Z,74.95
2018-06-16T01:57:04.427Z,74.48
2018-06-16T01:58:04.409Z,75.43
2018-06-16T01:59:04.403Z,75.71
2018-06-16T02:00:04.389Z,75.81
2018-06-16T02:01:04.384Z,75.91
2018-06-16T02:02:04.375Z,75.62
2018-06-16T02:03:04.359Z,76.10
2018-06-16T02:04:04.348Z,75.71
2018-06-16T02:05:04.340Z,75.91
2018-06-16T02:06:04.330Z,75.96
2018-06-16T02:07:04.318Z,75.68
2018-06-16T02:08:04.302Z,75.87
2018-06-16T02:09:04.296Z,76.45
2018-06-16T02:10:04.289Z,76.25
2018-06-16T02:11:04.278Z,76.54
2018-06-16T02:12:04.264Z,76.64
2018-06-16T02:13:04.255Z,76.54
2018-06-16T02:14:04.245Z,76.64
2018-06-16T02:15:04.235Z,76.35
2018-06-16T02:16:04.234Z,76.25
2018-06-16T02:17:04.219Z,75.96
2018-06-16T02:18:04.206Z,76.25
2018-06-16T02:19:04.197Z,76.64
2018-06-16T02:20:04.188Z,75.96
2018-06-16T02:21:04.176Z,76.64
2018-06-16T02:22:04.156Z,76.25
2018-06-16T02:23:04.148Z,76.45
2018-06-16T02:24:04.141Z,75.96
2018-06-16T02:25:04.131Z,76.16
2018-06-16T02:26:04.121Z,76.45
2018-06-16T02:27:04.117Z,76.64
2018-06-16T02:28:04.104Z,76.54
2018-06-16T02:29:04.086Z,76.45
2018-06-16T02:30:04.081Z,76.45
2018-06-16T02:31:04.067Z,76.73
2018-06-16T02:32:04.069Z,76.73
2018-06-16T02:33:04.050Z,77.01
2018-06-16T02:34:04.039Z,76.64
2018-06-16T02:35:04.029Z,76.82
2018-06-16T02:36:04.017Z,76.25
2018-06-16T02:37:04.008Z,76.25
2018-06-16T02:38:03.997Z,76.25
2018-06-16T02:39:03.989Z,76.35
2018-06-16T02:40:03.977Z,75.87
2018-06-16T02:41:03.965Z,76.16
2018-06-16T02:42:03.951Z,75.68
2018-06-16T02:43:03.950Z,75.96
2018-06-16T02:44:03.936Z,75.78
2018-06-16T02:45:03.927Z,75.96
2018-06-16T02:46:03.916Z,75.78
2018-06-16T02:47:03.903Z,75.68
2018-06-16T02:48:03.892Z,75.78
2018-06-16T02:49:03.884Z,75.68
2018-06-16T02:50:03.871Z,75.78
2018-06-16T02:51:03.861Z,75.20
2018-06-16T02:52:03.852Z,74.24
2018-06-16T02:53:03.841Z,73.96
2018-06-16T02:54:03.853Z,73.67
2018-06-16T02:55:03.818Z,73.67
2018-06-16T02:56:03.806Z,73.58
2018-06-16T02:57:03.796Z,74.53
2018-06-16T02:58:03.790Z,74.21
2018-06-16T02:59:03.778Z,75.01
2018-06-16T03:00:03.763Z,75.59
2018-06-16T03:01:03.755Z,75.96
2018-06-16T03:02:03.745Z,75.59
2018-06-16T03:03:03.734Z,75.45
2018-06-16T03:04:03.726Z,75.96
2018-06-16T03:05:03.717Z,75.54
2018-06-16T03:06:03.702Z,75.54
2018-06-16T03:07:03.693Z,75.74
2018-06-16T03:08:03.682Z,75.74
2018-06-16T03:09:03.668Z,76.03
2018-06-16T03:10:03.665Z,75.45
2018-06-16T03:11:03.652Z,75.74
2018-06-16T03:12:03.644Z,75.74
2018-06-16T03:13:03.628Z,75.93
2018-06-16T03:14:03.619Z,75.74
2018-06-16T03:15:03.653Z,76.40
2018-06-16T03:16:03.599Z,76.60
2018-06-16T03:17:03.593Z,76.40
2018-06-16T03:18:03.576Z,76.12
2018-06-16T03:19:03.567Z,76.31
2018-06-16T03:20:03.553Z,76.50
2018-06-16T03:21:03.547Z,76.31
2018-06-16T03:22:03.535Z,75.74
2018-06-16T03:23:03.525Z,75.64
2018-06-16T03:24:03.516Z,75.16
2018-06-16T03:25:03.501Z,74.69
2018-06-16T03:26:03.490Z,75.26
2018-06-16T03:27:03.487Z,74.98
2018-06-16T03:28:03.473Z,74.88
2018-06-16T03:29:03.457Z,75.26
2018-06-16T03:30:03.452Z,75.45
2018-06-16T03:31:03.438Z,75.45
2018-06-16T03:32:03.429Z,74.40
2018-06-16T03:33:03.418Z,74.21
2018-06-16T03:34:03.409Z,74.21
2018-06-16T03:35:03.394Z,75.07
2018-06-16T03:36:03.389Z,75.16
2018-06-16T03:37:03.374Z,75.35
2018-06-16T03:38:03.366Z,74.98
2018-06-16T03:39:03.349Z,75.26
2018-06-16T03:40:03.343Z,75.74
2018-06-16T03:41:03.335Z,75.54
2018-06-16T03:42:03.317Z,75.93
2018-06-16T03:43:03.309Z,76.03
2018-06-16T03:44:03.302Z,75.64
2018-06-16T03:45:03.286Z,75.35
2018-06-16T03:46:03.275Z,75.54
2018-06-16T03:47:03.284Z,75.35
2018-06-16T03:48:03.253Z,75.45
2018-06-16T03:49:03.243Z,74.98
2018-06-16T03:50:03.234Z,75.16
2018-06-16T03:51:03.225Z,75.93
2018-06-16T03:52:03.213Z,75.74
2018-06-16T03:53:03.203Z,75.74
2018-06-16T03:54:03.190Z,75.54
2018-06-16T03:55:03.185Z,75.45
2018-06-16T03:56:03.172Z,76.12
2018-06-16T03:57:03.160Z,75.74
2018-06-16T03:58:03.150Z,76.03
2018-06-16T03:59:03.138Z,76.12
2018-06-16T04:00:03.127Z,76.12
2018-06-16T04:01:03.117Z,75.70
2018-06-16T04:02:03.107Z,75.74
2018-06-16T04:03:03.094Z,75.16
2018-06-16T04:04:03.090Z,75.13
2018-06-16T04:05:03.080Z,75.74
2018-06-16T04:06:03.064Z,75.64
2018-06-16T04:07:03.050Z,75.83
2018-06-16T04:08:03.046Z,75.93
2018-06-16T04:09:03.028Z,74.98
2018-06-16T04:10:03.019Z,75.07
2018-06-16T04:11:03.007Z,75.98
2018-06-16T04:12:03.008Z,76.18
2018-06-16T04:13:02.985Z,76.65
2018-06-16T04:14:02.981Z,76.69
2018-06-16T04:15:02.964Z,76.65
2018-06-16T04:16:02.956Z,76.84
2018-06-16T04:17:02.941Z,76.65
2018-06-16T04:18:02.931Z,76.69
2018-06-16T04:19:02.920Z,76.65
2018-06-16T04:20:02.913Z,76.84
2018-06-16T04:21:02.898Z,76.88
2018-06-16T04:22:02.889Z,76.98
2018-06-16T04:23:02.886Z,76.56
2018-06-16T04:24:02.897Z,76.75
2018-06-16T04:25:02.858Z,77.08
2018-06-16T04:26:02.845Z,77.23
2018-06-16T04:27:02.840Z,76.94
2018-06-16T04:28:02.821Z,77.08
2018-06-16T04:29:02.812Z,76.94
2018-06-16T04:30:02.803Z,76.84
2018-06-16T04:31:02.795Z,76.08
2018-06-16T04:32:02.782Z,76.18
2018-06-16T04:33:02.771Z,76.46
2018-06-16T04:34:02.758Z,76.88
2018-06-16T04:35:02.748Z,77.23
2018-06-16T04:36:02.743Z,77.32
2018-06-16T04:37:02.721Z,77.61
2018-06-16T04:38:02.715Z,76.84
2018-06-16T04:39:02.707Z,76.75
2018-06-16T04:40:02.696Z,77.03
2018-06-16T04:41:02.683Z,77.51
2018-06-16T04:42:02.673Z,77.42
2018-06-16T04:43:02.659Z,77.32
2018-06-16T04:44:02.652Z,77.42
2018-06-16T04:45:02.640Z,77.70
2018-06-16T04:46:02.629Z,77.89
2018-06-16T04:47:02.618Z,76.88
2018-06-16T04:48:02.606Z,76.60
2018-06-16T04:49:02.596Z,77.99
2018-06-16T04:50:02.588Z,77.94
2018-06-16T04:51:02.576Z,78.22
2018-06-16T04:52:02.568Z,78.13
2018-06-16T04:53:02.552Z,77.55
2018-06-16T04:54:02.537Z,77.36
2018-06-16T04:55:02.535Z,77.65
2018-06-16T04:56:02.515Z,77.45
2018-06-16T04:57:02.560Z,76.88
2018-06-16T04:58:02.497Z,76.79
2018-06-16T04:59:02.483Z,75.93
2018-06-16T05:00:02.479Z,76.40
2018-06-16T05:01:02.468Z,76.31
2018-06-16T05:02:02.457Z,76.21
2018-06-16T05:03:02.442Z,76.12
2018-06-16T05:04:02.433Z,76.12
2018-06-16T05:05:02.430Z,76.12
2018-06-16T05:06:02.411Z,76.21
2018-06-16T05:07:02.400Z,76.50
2018-06-16T05:08:02.403Z,76.79
2018-06-16T05:09:02.384Z,77.03
2018-06-16T05:10:02.358Z,76.94
2018-06-16T05:11:02.352Z,77.70
2018-06-16T05:12:02.346Z,77.42
2018-06-16T05:13:02.332Z,77.80
2018-06-16T05:14:02.320Z,77.80
2018-06-16T05:15:02.308Z,78.47
2018-06-16T05:16:02.303Z,78.09
2018-06-16T05:17:02.358Z,77.89
2018-06-16T05:18:02.290Z,78.18
2018-06-16T05:19:02.267Z,78.28
2018-06-16T05:20:02.258Z,78.18
2018-06-16T05:21:02.246Z,78.31
2018-06-16T05:22:02.238Z,78.13
2018-06-16T05:23:02.231Z,78.79
2018-06-16T05:24:02.212Z,78.09
2018-06-16T05:25:02.205Z,78.03
2018-06-16T05:26:02.189Z,77.65
2018-06-16T05:27:02.179Z,77.74
2018-06-16T05:28:02.182Z,77.74
2018-06-16T05:29:02.161Z,77.45
2018-06-16T05:30:02.152Z,77.45
2018-06-16T05:31:02.137Z,77.61
2018-06-16T05:32:02.127Z,77.51
2018-06-16T05:33:02.116Z,76.84
2018-06-16T05:34:02.108Z,77.03
2018-06-16T05:35:02.095Z,77.61
2018-06-16T05:36:02.090Z,77.99
2018-06-16T05:37:02.075Z,78.28
2018-06-16T05:38:02.063Z,78.28
2018-06-16T05:39:02.053Z,78.66
2018-06-16T05:40:02.034Z,78.75
2018-06-16T05:41:02.034Z,79.14
2018-06-16T05:42:02.017Z,79.71
2018-06-16T05:43:02.002Z,79.90
2018-06-16T05:44:01.994Z,79.71
2018-06-16T05:45:01.992Z,79.52
2018-06-16T05:46:01.973Z,79.52
2018-06-16T05:47:01.964Z,79.52
2018-06-16T05:48:01.953Z,79.71
2018-06-16T05:49:01.943Z,79.23
2018-06-16T05:50:01.934Z,78.66
2018-06-16T05:51:01.915Z,78.94
2018-06-16T05:52:01.915Z,78.85
2018-06-16T05:53:01.895Z,78.66
2018-06-16T05:54:01.897Z,78.66
2018-06-16T05:55:01.877Z,78.75
2018-06-16T05:56:01.873Z,78.70
2018-06-16T05:57:01.856Z,78.75
2018-06-16T05:58:01.840Z,78.94
2018-06-16T05:59:01.838Z,79.17
2018-06-16T06:00:01.826Z,79.27
2018-06-16T06:01:01.819Z,78.22
2018-06-16T06:02:01.804Z,78.07
2018-06-16T06:03:01.792Z,77.59
2018-06-16T06:04:01.785Z,77.01
2018-06-16T06:05:01.766Z,77.06
2018-06-16T06:06:01.753Z,76.96
2018-06-16T06:07:01.745Z,76.39
2018-06-16T06:08:01.734Z,75.91
2018-06-16T06:09:01.727Z,75.81
2018-06-16T06:10:01.712Z,75.47
2018-06-16T06:11:01.696Z,75.27
2018-06-16T06:12:01.693Z,74.80
2018-06-16T06:13:01.687Z,74.80
2018-06-16T06:14:01.673Z,74.04
2018-06-16T06:15:01.666Z,73.75
2018-06-16T06:16:01.654Z,74.07
2018-06-16T06:17:01.641Z,73.30
2018-06-16T06:18:01.632Z,72.92
2018-06-16T06:19:01.624Z,72.83
2018-06-16T06:20:01.605Z,72.92
2018-06-16T06:21:01.599Z,72.63
2018-06-16T06:22:01.591Z,72.09
2018-06-16T06:23:01.569Z,72.19
2018-06-16T06:24:01.567Z,72.29
2018-06-16T06:25:01.563Z,71.42
2018-06-16T06:26:01.551Z,71.52
2018-06-16T06:27:01.535Z,71.91
2018-06-16T06:28:01.532Z,71.33
2018-06-16T06:29:01.518Z,71.56
2018-06-16T06:30:01.511Z,71.37
2018-06-16T06:31:01.494Z,71.37
2018-06-16T06:32:01.496Z,71.66
2018-06-16T06:33:01.476Z,72.13
2018-06-16T06:34:01.469Z,71.94
2018-06-16T06:35:01.458Z,71.17
2018-06-16T06:36:01.449Z,71.02
2018-06-16T06:37:01.437Z,70.06
2018-06-16T06:38:01.429Z,70.06
2018-06-16T06:39:01.423Z,69.77
2018-06-16T06:40:01.409Z,69.87
2018-06-16T06:41:01.399Z,69.87
2018-06-16T06:42:01.389Z,69.87
2018-06-16T06:43:01.381Z,68.72
2018-06-16T06:44:01.374Z,69.13
2018-06-16T06:45:01.371Z,68.56
2018-06-16T06:46:01.350Z,68.37
2018-06-16T06:47:01.346Z,67.99
2018-06-16T06:48:01.336Z,67.02
2018-06-16T06:49:01.323Z,67.32
2018-06-16T06:50:01.315Z,67.69
2018-06-16T06:51:01.302Z,67.99
2018-06-16T06:52:01.294Z,69.04
2018-06-16T06:53:01.290Z,68.37
2018-06-16T06:54:01.276Z,68.56
2018-06-16T06:55:01.269Z,68.50
2018-06-16T06:56:01.256Z,67.73
2018-06-16T06:57:01.258Z,67.25
2018-06-16T06:58:01.297Z,66.86
2018-06-16T06:59:01.227Z,66.49
2018-06-16T07:00:01.219Z,65.91
2018-06-16T07:01:01.220Z,65.91
2018-06-16T07:02:01.205Z,66.49
2018-06-16T07:03:01.199Z,66.49
2018-06-16T07:04:01.262Z,66.10
2018-06-16T07:05:01.189Z,65.08
2018-06-16T07:06:01.168Z,64.50
2018-06-16T07:07:01.162Z,64.12
2018-06-16T07:08:01.166Z,63.92
2018-06-16T07:09:01.142Z,63.83
2018-06-16T07:10:01.132Z,64.02
2018-06-16T07:11:01.120Z,64.59
2018-06-16T07:12:01.114Z,65.27
2018-06-16T07:13:01.106Z,64.92
2018-06-16T07:14:01.096Z,64.82
2018-06-16T07:15:01.095Z,65.20
2018-06-16T07:16:01.080Z,65.40
2018-06-16T07:17:01.071Z,64.15
2018-06-16T07:18:01.065Z,63.76
2018-06-16T07:19:01.057Z,63.57
2018-06-16T07:20:01.051Z,63.86
2018-06-16T07:21:01.041Z,63.86
2018-06-16T07:22:01.028Z,63.51
2018-06-16T07:23:01.021Z,64.95
2018-06-16T07:24:01.015Z,65.23
2018-06-16T07:25:01.008Z,64.09
2018-06-16T07:26:01.001Z,63.70
2018-06-16T07:27:01.021Z,62.16
2018-06-16T07:28:00.981Z,60.82
2018-06-16T07:29:00.974Z,60.63
2018-06-16T07:30:00.963Z,60.63
2018-06-16T07:31:00.950Z,60.53
2018-06-16T07:32:00.943Z,62.64
2018-06-16T07:33:00.940Z,62.55
2018-06-16T07:34:00.931Z,61.68
2018-06-16T07:35:00.924Z,60.43
2018-06-16T07:36:00.903Z,60.82
2018-06-16T07:37:00.906Z,62.26
2018-06-16T07:38:00.893Z,62.16
2018-06-16T07:39:00.973Z,61.97
2018-06-16T07:40:00.884Z,62.07
2018-06-16T07:41:00.874Z,62.10
2018-06-16T07:42:00.862Z,62.10
2018-06-16T07:43:00.856Z,61.52
2018-06-16T07:44:00.852Z,60.85
2018-06-16T07:45:00.841Z,60.66
2018-06-16T07:46:00.828Z,60.75
2018-06-16T07:47:00.823Z,60.85
2018-06-16T07:48:00.815Z,59.41
2018-06-16T07:49:00.814Z,61.04
2018-06-16T07:50:00.802Z,61.61
2018-06-16T07:51:00.798Z,60.39
2018-06-16T07:52:00.784Z,59.69
2018-06-16T07:53:00.780Z,59.02
2018-06-16T07:54:00.772Z,59.60
2018-06-16T07:55:00.762Z,59.69
2018-06-16T07:56:00.753Z,59.60
2018-06-16T07:57:00.752Z,58.35
2018-06-16T07:58:00.731Z,58.99
2018-06-16T07:59:00.729Z,59.57
2018-06-16T08:00:00.716Z,59.19
2018-06-16T08:01:00.712Z,59.09
2018-06-16T08:02:00.716Z,58.99
2018-06-16T08:03:00.698Z,59.76
2018-06-16T08:04:00.693Z,57.84
2018-06-16T08:05:00.682Z,58.22
2018-06-16T08:06:00.672Z,56.78
2018-06-16T08:07:00.668Z,56.49
2018-06-16T08:08:00.652Z,56.78
2018-06-16T08:09:00.648Z,56.40
2018-06-16T08:10:00.637Z,57.26
2018-06-16T08:11:00.634Z,56.49
2018-06-16T08:12:00.626Z,57.26
2018-06-16T08:13:00.624Z,56.88
2018-06-16T08:14:00.617Z,56.98
2018-06-16T08:15:00.601Z,57.65
2018-06-16T08:16:00.598Z,57.26
2018-06-16T08:17:00.590Z,57.45
2018-06-16T08:18:00.672Z,57.55
2018-06-16T08:19:00.571Z,57.75
2018-06-16T08:20:00.567Z,56.88
2018-06-16T08:21:00.558Z,57.26
2018-06-16T08:22:00.549Z,57.55
2018-06-16T08:23:00.540Z,57.84
2018-06-16T08:24:00.535Z,57.93
2018-06-16T08:25:00.537Z,60.14
2018-06-16T08:26:00.516Z,58.99
2018-06-16T08:27:00.507Z,58.15
2018-06-16T08:28:00.500Z,57.68
2018-06-16T08:29:00.494Z,58.64
2018-06-16T08:30:00.486Z,59.60
2018-06-16T08:31:00.484Z,58.92
2018-06-16T08:32:00.470Z,59.41
2018-06-16T08:33:00.467Z,57.77
2018-06-16T08:34:00.459Z,58.25
2018-06-16T08:35:00.448Z,60.75
2018-06-16T08:36:00.442Z,58.86
2018-06-16T08:37:00.430Z,57.20
2018-06-16T08:38:00.424Z,56.43
2018-06-16T08:39:00.416Z,57.10
2018-06-16T08:40:00.407Z,57.22
2018-06-16T08:41:00.398Z,55.66
2018-06-16T08:42:00.390Z,55.76
2018-06-16T08:43:00.388Z,56.91
2018-06-16T08:44:00.377Z,56.45
2018-06-16T08:45:00.369Z,56.71
2018-06-16T08:46:00.376Z,57.39
2018-06-16T08:47:00.359Z,57.39
2018-06-16T08:48:00.350Z,55.11
2018-06-16T08:49:00.341Z,54.91
2018-06-16T08:50:00.331Z,54.82
2018-06-16T08:51:00.324Z,54.22
2018-06-16T08:52:00.316Z,54.22
2018-06-16T08:53:00.313Z,55.94
2018-06-16T08:54:00.302Z,56.33
2018-06-16T08:55:00.296Z,56.23
2018-06-16T08:56:00.286Z,55.18
2018-06-16T08:57:00.282Z,55.94
2018-06-16T08:58:00.272Z,55.94
2018-06-16T08:59:00.269Z,56.04
2018-06-16T09:00:00.274Z,54.99
2018-06-16T09:01:00.243Z,53.74
2018-06-16T09:02:00.254Z,54.69
2018-06-16T09:03:00.232Z,52.97
2018-06-16T09:04:00.223Z,51.91
2018-06-16T09:05:00.215Z,53.74
2018-06-16T09:06:00.212Z,52.87
2018-06-16T09:07:00.207Z,53.19
2018-06-16T09:08:00.198Z,52.99
2018-06-16T09:09:00.190Z,52.99
2018-06-16T09:10:00.180Z,52.99
2018-06-16T09:11:00.186Z,51.84
2018-06-16T09:12:00.165Z,51.74
2018-06-16T09:13:00.160Z,52.22
2018-06-16T09:14:00.226Z,52.80
2018-06-16T09:15:00.156Z,52.99
2018-06-16T09:16:00.132Z,52.12
2018-06-16T09:17:00.126Z,52.51
2018-06-16T09:18:00.115Z,52.80
2018-06-16T09:19:00.113Z,52.22
2018-06-16T09:20:00.106Z,53.19
2018-06-16T09:21:00.098Z,52.89
2018-06-16T09:22:00.084Z,51.26
2018-06-16T09:23:00.081Z,51.26
2018-06-16T09:24:00.084Z,52.61
2018-06-16T09:25:00.069Z,52.70
2018-06-16T09:26:00.057Z,54.05
2018-06-16T09:27:00.050Z,52.42
2018-06-16T09:28:00.054Z,51.74
2018-06-16T09:29:00.036Z,52.89
2018-06-16T09:30:00.026Z,52.70
2018-06-16T09:31:00.022Z,51.29
2018-06-16T09:32:00.020Z,52.12
2018-06-16T09:33:00.012Z,51.64
2018-06-16T09:34:00.001Z,52.06
2018-06-16T09:34:59.990Z,51.26
2018-06-16T09:35:59.988Z,49.84
2018-06-16T09:36:59.978Z,50.13
2018-06-16T09:37:59.964Z,50.78
2018-06-16T09:38:59.960Z,50.81
2018-06-16T09:39:59.953Z,51.64
2018-06-16T09:40:59.945Z,49.84
2018-06-16T09:41:59.950Z,48.85
2018-06-16T09:42:59.929Z,49.27
2018-06-16T09:43:59.919Z,49.65
2018-06-16T09:44:59.921Z,49.94
2018-06-16T09:45:59.906Z,49.65
2018-06-16T09:46:59.904Z,49.94
2018-06-16T09:47:59.896Z,50.71
2018-06-16T09:48:59.888Z,50.51
2018-06-16T09:49:59.872Z,51.29
2018-06-16T09:50:59.872Z,52.15
2018-06-16T09:51:59.863Z,53.98
2018-06-16T09:52:59.855Z,53.88
2018-06-16T09:53:59.847Z,52.34
2018-06-16T09:54:59.839Z,51.19
2018-06-16T09:55:59.836Z,51.70
2018-06-16T09:56:59.826Z,52.95
2018-06-16T09:57:59.823Z,55.07
2018-06-16T09:58:59.814Z,53.43
2018-06-16T09:59:59.804Z,54.10
2018-06-16T10:00:59.798Z,54.10
2018-06-16T10:01:59.790Z,54.39
2018-06-16T10:02:59.788Z,54.00
2018-06-16T10:03:59.775Z,54.87
2018-06-16T10:04:59.767Z,52.85
2018-06-16T10:05:59.757Z,51.70
2018-06-16T10:07:02.499Z,52.95
2018-06-16T10:07:59.753Z,52.75
2018-06-16T10:08:59.755Z,53.14
2018-06-16T10:09:59.727Z,53.23
2018-06-16T10:10:59.731Z,54.10
2018-06-16T10:11:59.718Z,52.75
2018-06-16T10:12:59.721Z,52.56
2018-06-16T10:13:59.700Z,52.08
2018-06-16T10:14:59.699Z,52.85
2018-06-16T10:15:59.730Z,53.91
2018-06-16T10:16:59.699Z,51.50
2018-06-16T10:17:59.678Z,52.47
2018-06-16T10:18:59.674Z,53.23
2018-06-16T10:19:59.659Z,52.75
2018-06-16T10:20:59.653Z,54.13
2018-06-16T10:21:59.645Z,53.45
2018-06-16T10:22:59.636Z,52.69
2018-06-16T10:23:59.637Z,51.82
2018-06-16T10:24:59.623Z,51.82
2018-06-16T10:25:59.617Z,52.01
2018-06-16T10:26:59.613Z,51.82
2018-06-16T10:27:59.606Z,49.99
2018-06-16T10:28:59.610Z,49.89
2018-06-16T10:29:59.588Z,49.99
2018-06-16T10:30:59.583Z,49.02
2018-06-16T10:31:59.571Z,49.60
2018-06-16T10:32:59.563Z,50.09
2018-06-16T10:33:59.558Z,49.79
2018-06-16T10:34:59.552Z,50.18
2018-06-16T10:35:59.552Z,50.66
2018-06-16T10:36:59.543Z,51.53
2018-06-16T10:37:59.532Z,50.85
2018-06-16T10:38:59.518Z,51.72
2018-06-16T10:39:59.520Z,53.09
2018-06-16T10:40:59.507Z,52.71
2018-06-16T10:41:59.504Z,52.42
2018-06-16T10:42:59.498Z,51.75
2018-06-16T10:43:59.496Z,51.65
2018-06-16T10:44:59.484Z,52.42
2018-06-16T10:45:59.470Z,52.23
2018-06-16T10:46:59.471Z,53.39
2018-06-16T10:47:59.473Z,54.83
2018-06-16T10:48:59.457Z,53.48
2018-06-16T10:49:59.481Z,52.71
2018-06-16T10:50:59.442Z,51.56
2018-06-16T10:51:59.435Z,51.94
2018-06-16T10:52:59.431Z,52.71
2018-06-16T10:53:59.414Z,52.91
2018-06-16T10:54:59.416Z,52.23
2018-06-16T10:55:59.404Z,51.84
2018-06-16T10:56:59.402Z,52.04
2018-06-16T10:57:59.392Z,51.75
2018-06-16T10:58:59.389Z,53.00
2018-06-16T10:59:59.377Z,53.09
2018-06-16T11:00:59.373Z,53.48
2018-06-16T11:01:59.365Z,53.13
2018-06-16T11:02:59.360Z,52.55
2018-06-16T11:03:59.358Z,51.58
2018-06-16T11:04:59.343Z,53.70
2018-06-16T11:05:59.336Z,55.05
2018-06-16T11:06:59.336Z,52.06
2018-06-16T11:07:59.321Z,53.03
2018-06-16T11:08:59.323Z,54.38
2018-06-16T11:09:59.314Z,53.05
2018-06-16T11:10:59.305Z,53.34
2018-06-16T11:11:59.302Z,53.13
2018-06-16T11:12:59.295Z,52.76
2018-06-16T11:13:59.288Z,52.95
2018-06-16T11:14:59.279Z,51.89
2018-06-16T11:15:59.275Z,51.70
2018-06-16T11:16:59.270Z,51.89
2018-06-16T11:17:59.260Z,51.89
2018-06-16T11:18:59.670Z,51.32
2018-06-16T11:19:59.248Z,52.57
2018-06-16T11:20:59.246Z,53.05
2018-06-16T11:21:59.236Z,51.12
2018-06-16T11:22:59.237Z,51.12
2018-06-16T11:23:59.230Z,52.76
2018-06-16T11:24:59.219Z,52.57
2018-06-16T11:25:59.207Z,51.32
2018-06-16T11:26:59.203Z,53.08
2018-06-16T11:27:59.198Z,52.37
2018-06-16T11:28:59.188Z,51.32
2018-06-16T11:29:59.190Z,51.89
2018-06-16T11:30:59.178Z,51.89
2018-06-16T11:31:59.169Z,52.37
2018-06-16T11:32:59.167Z,52.11
2018-06-16T11:33:59.157Z,52.37
2018-06-16T11:34:59.149Z,52.69
2018-06-16T11:35:59.147Z,51.53
2018-06-16T11:36:59.141Z,51.15
2018-06-16T11:37:59.133Z,50.67
2018-06-16T11:38:59.129Z,51.05
2018-06-16T11:39:59.120Z,53.27
2018-06-16T11:40:59.112Z,51.63
2018-06-16T11:41:59.126Z,52.40
2018-06-16T11:42:59.102Z,52.59
2018-06-16T11:43:59.096Z,51.53
2018-06-16T11:44:59.088Z,50.76
2018-06-16T11:45:59.088Z,50.96
2018-06-16T11:46:59.085Z,53.39
2018-06-16T11:47:59.073Z,51.37
2018-06-16T11:48:59.072Z,50.69
2018-06-16T11:49:59.056Z,50.79
2018-06-16T11:50:59.057Z,50.89
2018-06-16T11:51:59.044Z,51.07
2018-06-16T11:52:59.040Z,50.79
2018-06-16T11:53:59.038Z,49.92
2018-06-16T11:54:59.024Z,50.98
2018-06-16T11:55:59.025Z,51.27
2018-06-16T11:56:59.018Z,53.11
2018-06-16T11:57:59.015Z,50.40
2018-06-16T11:58:59.003Z,50.50
2018-06-16T11:59:58.998Z,50.01
2018-06-16T12:00:58.991Z,50.98
2018-06-16T12:01:59.022Z,50.69
2018-06-16T12:02:58.982Z,50.69
2018-06-16T12:03:58.974Z,51.01
2018-06-16T12:04:58.969Z,51.20
2018-06-16T12:05:58.965Z,49.53
2018-06-16T12:06:58.973Z,50.01
2018-06-16T12:07:58.954Z,49.05
2018-06-16T12:08:58.946Z,50.40
2018-06-16T12:09:58.935Z,51.68
2018-06-16T12:10:58.934Z,49.37
2018-06-16T12:11:58.927Z,48.88
2018-06-16T12:12:58.922Z,48.97
2018-06-16T12:13:58.919Z,48.97
2018-06-16T12:14:58.906Z,50.04
2018-06-16T12:15:58.902Z,49.95
2018-06-16T12:16:58.896Z,48.49
2018-06-16T12:17:58.894Z,49.27
2018-06-16T12:18:58.891Z,49.17
2018-06-16T12:19:58.881Z,49.85
2018-06-16T12:20:58.885Z,49.75
2018-06-16T12:21:58.867Z,50.52
2018-06-16T12:22:58.864Z,50.91
2018-06-16T12:23:58.860Z,48.49
2018-06-16T12:24:58.857Z,48.59
2018-06-16T12:25:58.843Z,49.37
2018-06-16T12:26:58.844Z,49.75
2018-06-16T12:27:58.835Z,50.33
2018-06-16T12:28:58.838Z,49.19
2018-06-16T12:29:58.827Z,49.10
2018-06-16T12:30:58.818Z,48.61
2018-06-16T12:31:58.813Z,48.52
2018-06-16T12:32:58.809Z,47.94
2018-06-16T12:33:58.801Z,48.71
2018-06-16T12:34:58.799Z,49.95
2018-06-16T12:35:58.788Z,50.55
2018-06-16T12:36:58.787Z,49.19
2018-06-16T12:37:58.783Z,48.81
2018-06-16T12:38:58.783Z,48.61
2018-06-16T12:39:58.771Z,49.97
2018-06-16T12:40:58.768Z,48.90
2018-06-16T12:41:58.758Z,50.16
2018-06-16T12:42:58.754Z,50.07
2018-06-16T12:43:58.745Z,48.90
2018-06-16T12:44:58.741Z,49.19
2018-06-16T12:45:58.737Z,48.23
2018-06-16T12:46:58.727Z,48.23
2018-06-16T12:47:58.725Z,49.39
2018-06-16T12:48:58.719Z,49.00
2018-06-16T12:49:58.712Z,48.13
2018-06-16T12:50:58.714Z,48.42
2018-06-16T12:51:58.706Z,48.39